Timeline UpdatesTrip UpdatesNews PostsPvt PostsTravel TipsAdmin PostsConv PostsFollowed PostsChat RequestsBlog PostsPNR Posts

Disclaimer
Search
 
 
Thu Oct 2, 2014 17:56:38 ISTHomeTrainsΣChainsAtlasPNRForumGalleryNewsFAQTripsMembersLoginFeedback
No Recent News for this Train
Other Trains in the News **new
Latest...
⇐ Return Journey: Train# 59342

59341/Nagda Bina Passenger (UnReserved)

Time-Table HAS CHANGED.
Sep 03 (5:56PM)
Change Departure Station:
Change Arrival Station:
Post a Train Travel TipPost a Train Travel Tip **new
Post a Comment/Question/Picture/VideoPost a Comment/Question/Picture/Video
Pantry/Catering
✕ NO Pantry Car
✕ NO Catering
RSA - Rake Sharing
59307/59354/59353/59318/59346/59345/59341/59342/59317/59306; Entry# 518023
Rake/Coach Composition
Loco
News    PNR    Forum    Time-Table    Availability    Fare Chart    Map    Arr/Dep History    Trips    Gallery    ΣChains    X/O    Timeline    
Travel Time: 3h 19m    13 halts    Distance: 105 km    Avg Speed: 31 km/hr
Type: Passenger
Zone: WR/Western
Departs @ 20:06 (Avg 27m late)
Platform# ???
SMTWTFS
Pagara/PGA 
Arrives @ 23:25 (Avg 1m late)
Platform# 5
SMTWTFS
Bina Junction/BINA 

13 halts. 14 intermediate Stations between Pagara and Bina Junction

Show ALL intermediate Stations  Show Old Time-Table

#CodeStation NameX/OArrivesAvgDepartsAvgHaltPFDay#KmSpeedElevZoneAddress
1NADNagda Junction (4)  -11:35+5--1-326.761468mWRNagda, Madhya Pradesh
2BTSDBhatisuda new halt!!  11:41-11:42-1m--1-320.636482mWRUjjain, Madhya Pradesh
3PPGPiploda Bagla  11:51+611:52+61m--1-315.152475mWRPiploda Sagotimata, Madhya Pradesh
4UNLUnhel  12:00+612:01+61m--1-308.158484mWRUjjain, Madhya Pradesh
5PSOPalsora MakrawaX  12:10+512:11+51m--1-299.552499mWRUjjain, Madhya Pradesh
6ASLAslaoda  12:21+712:22+71m--1-290.846489mWRUjjain, Madhya Pradesh
7NKINaikheriX  12:33+812:34+81m--1-282.419504mWRUjjain, Madhya Pradesh
8UJNUjjain Junction (8)X  13:10+513:40+1030m--1-271.045492mWRUjjain 456001, Madhya Pradesh
9PLWPingleshwar  13:52+913:53+91m--1-262.149509mWRMaksi, Madhya Pradesh
10TJPTajpur (2)  14:01+814:02+81m--1-255.573528mWRMaksi, Madhya Pradesh
11SVTShivpura  14:10-14:11-1m--1-245.862499mWRMaksi, Madhya Pradesh
12TANTarana RoadXO  14:19+714:20+121m--1-237.611498mWRMaksi, Madhya Pradesh
13MKCMaksi Junction (3)  15:13-215:15+02m--1-228.077513mWRMakshi, Madhya Pradesh
14SYOSiroliya  15:24 15:23-15:25-1 2m--1-217.843462mWCRShajapur, Madhya Pradesh
15CAZChauhani  15:34 15:32-15:35 15:34-1 2m--1-212.863478mWCRShajapur, Madhya Pradesh
16SFYShajapurX  15:47 15:46+715:49 15:48+72m--1-200.357450mWCRShajapur, Madhya Pradesh
17SFWSarangpur  16:15 16:16+416:17 16:18+52m--1-173.765422mWCRSarangpur, Madhya Pradesh
18PQUParhana Mau (1)X  16:29 16:27+416:30 16:29+181 2m11-163.956440mWCRNational Highway 3, Madhya Pradesh
19UDKUdyan Kheri (1)  16:44 16:39-16:45 16:40-1m11-154.674435mWCRUdankheri, Madhya Pradesh
20PFRPachor Road  16:57 16:51+1516:58 16:53+181 2m--1-141.070419mWCRPachore, Madhya Pradesh
21BRRGBiyavra Rajgarh  17:24 17:18+1617:25 17:20+171 2m--1-111.854423mWCRBiaora, Madhya Pradesh
22SFZSinduriya Kachari (2)  17:34 17:31+2417:35 17:33+251 2m21-101.977428mWCRGuna, Madhya Pradesh
23CBKChachaura Binaganj (1)  17:54 17:49+3617:55 17:51+371 2m11-81.468435mWCRGuna, Madhya Pradesh
24KHRJKumbhraj (1)  18:17 18:11+1818:18 18:13+191 2m11-58.773401mWCRManpura, Madhya Pradesh
25RGGRadogarh (1)  18:27 18:23-18:28 18:25-1 2m11-46.660417mWCRVijaypur, Madhya Pradesh
26VJPVijay Pur  18:39 18:32+2318:40 18:34+241 2m--1-39.610420mWCRVijaipur, Madhya Pradesh
27RTARuthiyai Junction (2)  19:00 19:05+1319:05 19:10+165m--1-34.458414mWCRRuthiyai, Madhya Pradesh
28MUGAMahugara  19:18 19:24+2219:20 19:26+272m--1-20.932501mWCRRuthiyai, Madhya Pradesh
29GUNAGuna Junction (3)  19:35 19:40+1619:45 19:50+1610m21-13.577477mWCRJn Point Indore/Gwalior/Bina/Kota, Madhya Pradesh
30MABNMaban  19:52 19:55+1419:53 19:57+151 2m--1-7.161501mWCRState Highway 23, Madhya Pradesh
31PGAPagara»  20:01 20:04+1720:03 20:06+272m--10.064494mWCRGuna, Madhya Pradesh
32PIGTPilighat  20:09 20:12+3120:10 20:14+311 2m--16.468471mWCRGUNA Rd, Madhya Pradesh
33SHDRShadhoragaonX  20:24 20:22+2620:25 20:24+271 2m--115.461504mWCRGuna, Madhya Pradesh
34RIKARatikheda  20:33 20:32+2820:35 20:34+282m--123.554526mWCRGuna, Madhya Pradesh
35ASKNAshok Nagar (2)  20:43 20:42+1420:45 20:44+152m--130.768502mWCRAshoknagar, Madhya Pradesh
36HPKAHinotia Pipalkhera  20:51 20:52+3320:52 20:54+331 2m--139.843460mWCRAshoknagar, Madhya Pradesh
37ORROrrX  20:58 20:59+3421:00 21:01+382m--143.439450mWCRAshoknagar, Madhya Pradesh
38RTWSRahatwas new halt!!  21:08+4021:10+422m--147.979459mWCRRatwas, Madhya Pradesh
39PIAPipraigaon (3)  21:14 21:17+4121:16 21:19+412m2157.159451mWCRAshoknagar, Madhya Pradesh
40GVBGuneru Bamori (2)  21:24 21:30+4621:26 21:32+462m--168.063427mWCRAshoknagar, Madhya Pradesh
41MNVMungaoli (2)  21:34 21:40+5421:36 21:42+1:002m--176.453403mWCRAshoknagar, Madhya Pradesh
42KXBKanjiya  21:44 21:51+1:0021:46 21:53+1:002m--184.482390mWCRMungaoli, Madhya Pradesh
43SRKISemarkheriX  21:50 21:59+1:0421:52 22:01+1:042m--192.634412mWCRBina, Madhya Pradesh
44MDVKMahadeokhedi  21:58 22:10+1:0522:00 22:12+1:052m--197.76423mWCRBina, Madhya Pradesh
45BINABina Junction (5)•  23:25+1-51105.4-414mWCRJn Pt - KATNI/GUNA/ BPL/JHS, Madhya Pradesh
Scroll to Top
Scroll to Bottom